KSGJ

Northeast Florida Regional Airport

St Augustine, Florida, USA
KSGJ 182320Z 1900/1924 VRB05KT P6SM SCT080 BKN200 FM191500 17011KT P6SM SCT030 BKN250
Issued Valid From Valid To
Jan-18 @ 23:20 UTC
(4 hours ago)
Jan-19 @ 00:00 UTC
(3 hours ago)
Jan-20 @ 00:00 UTC
(in 21 hours)
Jan-19 @ 00:00 to Jan-19 @ 15:00
KSGJ 182320Z 1900/1924 VRB05KT P6SM SCT080 BKN200
Wind Visibility Clouds
Variable at 5 knots Greater than 6 miles
  • Scattered at 8,000' AGL
  • Broken at 20,000' AGL
From Jan-19 @ 15:00 to Jan-20 @ 00:00
FM191500 17011KT P6SM SCT030 BKN250
Wind Visibility Clouds
170° at 11 knots Greater than 6 miles
  • Scattered at 3,000' AGL
  • Broken at 25,000' AGL
KSGJ 182320Z 1900/1924 VRB05KT P6SM SCT080 BKN200 FM191500 17011KT P6SM SCT030 BKN250
Issued Jan-18 @ 23:20 UTC
(4 hours ago)
Valid From Jan-19 @ 00:00 UTC
(3 hours ago)
Valid To Jan-20 @ 00:00 UTC
(in 21 hours)
Jan-19 @ 00:00 - Jan-19 @ 15:00
Wind Visibility
Variable at 5 knots Greater than 6 miles
Clouds
  • Scattered at 8,000' AGL
  • Broken at 20,000' AGL
From Jan-19 @ 15:00 - Jan-20 @ 00:00
Wind Visibility
170° at 11 knots Greater than 6 miles
Clouds
  • Scattered at 3,000' AGL
  • Broken at 25,000' AGL